Aviation Digital Data Service (ADDS)

Output produced by METARs form (0923 UTC 27 June 2016)
found at http://www.aviationweather.gov/adds/metars/
 
KUNV 270915Z AUTO 27004KT 10SM SCT065 SCT080 SCT090 18/14 A3007 RMK AO2 T01830142
KUNV 270855Z AUTO 25003KT 10SM CLR 18/14 A3006 RMK AO2 T01790141
KUNV 270835Z AUTO 27004KT 10SM CLR 18/15 A3007 RMK AO2 T01820145
KUNV 270815Z AUTO 27004KT 10SM CLR 19/14 A3007 RMK AO2 T01860143
KUNV 270755Z AUTO 22004KT 10SM CLR 19/14 A3007 RMK AO2 T01910137
KUNV 270735Z AUTO 22004KT 10SM SCT055 SCT070 SCT080 19/14 A3008 RMK AO2 T01870138
KUNV 270715Z AUTO 23006KT 10SM SCT055 SCT075 SCT080 19/14 A3009 RMK AO2 T01930139
KUNV 270655Z AUTO 23006KT 10SM CLR 20/14 A3009 RMK AO2 T01980140
KUNV 270635Z AUTO 23006KT 10SM CLR 20/14 A3009 RMK AO2 T01960140
KUNV 270615Z AUTO 21005KT 10SM CLR 20/14 A3010 RMK AO2 T01980141
KUNV 270555Z AUTO 22005KT 10SM CLR 20/14 A3010 RMK AO2 T01980142 10254 20198
KUNV 270535Z AUTO 22003KT 10SM CLR 20/14 A3010 RMK AO2 T02020143
KUNV 270515Z AUTO 22005KT 10SM SCT100 20/15 A3011 RMK AO2 T02040145
KUNV 270455Z AUTO 22005KT 10SM SCT060 SCT080 SCT100 21/15 A3011 RMK AO2 T02090145
KUNV 270435Z AUTO 21004KT 10SM CLR 21/15 A3011 RMK AO2 T02110147
KUNV 270415Z AUTO 22005KT 10SM SCT070 21/15 A3012 RMK AO2 T02110147
KUNV 270355Z AUTO 21006KT 10SM CLR 22/15 A3012 RMK AO2 T02200147 402810151
KUNV 270335Z AUTO 22006KT 10SM CLR 22/15 A3013 RMK AO2 T02170148
KUNV 270315Z AUTO 21005KT 10SM CLR 22/15 A3012 RMK AO2 T02230147
KUNV 270255Z AUTO 21005KT 10SM CLR 22/15 A3012 RMK AO2 T02200149
KUNV 270235Z AUTO 22003KT 10SM CLR 23/15 A3012 RMK AO2 T02260148
KUNV 270215Z AUTO 20004KT 10SM CLR 23/15 A3012 RMK AO2 T02290147
KUNV 270155Z AUTO 21004KT 10SM CLR 23/15 A3012 RMK AO2 T02310147
KUNV 270053Z 17007KT 10SM SKC 24/15 A3010
KUNV 262353Z 19007G16KT 10SM SKC 25/16 A3011
KUNV 262253Z 16008G15KT 10SM SKC 27/16 A3012
KUNV 262153Z 16010G17KT 10SM SCT048 27/17 A3013
KUNV 262053Z 18007G15KT 10SM SCT048 SCT065 28/17 A3015
KUNV 261953Z 18008KT 10SM SCT047 28/17 A3016
KUNV 261853Z 18008G14KT 10SM BKN047 28/17 A3018
KUNV 261753Z 16007KT 10SM SKC 27/16 A3020
KUNV 261653Z 19006KT 10SM SKC 27/16 A3023
KUNV 261553Z 17010KT 10SM SKC 26/16 A3023
KUNV 261453Z 16012G17KT 10SM SKC 25/16 A3023
KUNV 261353Z 19009KT 10SM SKC 24/17 A3024
KUNV 261253Z 23005KT 10SM SKC 21/17 A3023
KUNV 261153Z 00000KT 10SM SKC 16/16 3022
KUNV 261053Z COR 00000KT 10SM SKC 16/16 3022
KUNV 261024Z COR 19004KT 10SM SKC 23/16 A3019
KUNV 260935Z AUTO 00000KT 7SM SCT060 SCT070 SCT090 16/15 A3022 RMK AO2 T01590152
KUNV 260915Z AUTO 00000KT 2 1/2SM BR SCT065 SCT080 15/15 A3021 RMK AO2 T01540150
KUNV 260855Z AUTO 00000KT 10SM SCT075 17/16 A3021 RMK AO2 T01660156
KUNV 260835Z AUTO 00000KT 10SM SCT065 17/16 A3021 RMK AO2 T01710161
KUNV 260815Z AUTO 00000KT 10SM CLR 17/16 A3021 RMK AO2 T01700159
KUNV 260755Z AUTO 00000KT 10SM CLR 17/16 A3022 RMK AO2 T01730160
KUNV 260735Z AUTO 00000KT 10SM SCT050 SCT055 SCT080 17/16 A3022 RMK AO2 T01680159
KUNV 260715Z AUTO 00000KT 10SM SCT055 SCT070 SCT090 18/16 A3023 RMK AO2 T01770161
KUNV 260655Z AUTO 00000KT 10SM SCT055 SCT065 SCT080 18/16 A3024 RMK AO2 T01820161
KUNV 260635Z AUTO 00000KT 10SM SCT060 SCT075 SCT090 19/16 A3024 RMK AO2 T01850164
KUNV 260615Z AUTO 00000KT 10SM SCT060 SCT070 SCT080 18/16 A3024 RMK AO2 T01810162
KUNV 260555Z AUTO 24003KT 10SM CLR 19/16 A3023 RMK AO2 T01870161 10246 20185
KUNV 260535Z AUTO 26004KT 10SM CLR 20/16 A3022 RMK AO2 T01950164
KUNV 260515Z AUTO 28003KT 10SM SCT060 SCT070 19/17 A3022 RMK AO2 T01930166
KUNV 260455Z AUTO 00000KT 10SM SCT075 SCT080 19/17 A3020 RMK AO2 T01910165
KUNV 260435Z AUTO 00000KT 10SM SCT065 SCT075 19/16 A3021 RMK AO2 T01850162
KUNV 260415Z AUTO 26003KT 10SM CLR 20/17 A3021 RMK AO2 T02020166
KUNV 260355Z AUTO 23005KT 10SM CLR 20/17 A3020 RMK AO2 T01980166 402740149
KUNV 260335Z AUTO 21003KT 10SM CLR 19/17 A3020 RMK AO2 T01940165
KUNV 260315Z AUTO 00000KT 10SM CLR 20/17 A3021 RMK AO2 T02010166
KUNV 260255Z AUTO 20003KT 10SM CLR 20/17 A3020 RMK AO2 T02020167
KUNV 260235Z AUTO 21004KT 10SM SCT065 SCT080 21/17 A3020 RMK AO2 T02070168
KUNV 260215Z AUTO 22003KT 10SM SCT065 SCT090 21/17 A3020 RMK AO2 T02050165
KUNV 260155Z AUTO 00000KT 10SM CLR 22/16 A3020 RMK AO2 T02150164
KUNV 260053Z 19004KT 10SM SKC 23/16 A3019
KUNV 252353Z 18005KT 10SM SKC 25/16 A3020
KUNV 252253Z 18003KT 10SM SCT080 25/16 A3018
KUNV 252153Z 15003KT 10SM SCT065 26/16 A3018